createdAt,value
2023-03-30T00:02:54.076Z,98838.94
2023-03-30T00:07:56.087Z,98830.88
2023-03-30T00:12:58.730Z,98827.00
2023-03-30T00:18:01.829Z,98819.63
2023-03-30T00:23:03.819Z,98816.92
2023-03-30T00:28:05.843Z,98817.19
2023-03-30T00:33:07.815Z,98809.55
2023-03-30T00:38:09.736Z,98808.92
2023-03-30T00:43:12.253Z,98809.13
2023-03-30T00:48:22.243Z,98809.96
2023-03-30T00:53:28.981Z,98803.51
2023-03-30T00:58:32.103Z,98799.59
2023-03-30T01:03:45.950Z,98795.35
2023-03-30T01:08:48.089Z,98791.94
2023-03-30T01:13:57.709Z,98783.35
2023-03-30T01:19:24.683Z,98772.62
2023-03-30T01:24:53.903Z,98770.29
2023-03-30T01:30:12.916Z,98771.53
2023-03-30T01:35:46.758Z,98769.88
2023-03-30T01:41:13.403Z,98768.60
2023-03-30T01:46:30.912Z,98765.81
2023-03-30T01:51:40.946Z,98757.59
2023-03-30T01:56:59.482Z,98755.27
2023-03-30T02:02:07.291Z,98756.27
2023-03-30T02:07:17.875Z,98752.98
2023-03-30T02:12:20.731Z,98755.77
2023-03-30T02:17:24.663Z,98752.41
2023-03-30T02:22:29.543Z,98750.73
2023-03-30T02:27:32.958Z,98750.73
2023-03-30T02:32:45.743Z,98748.98
2023-03-30T02:37:57.310Z,98749.40
2023-03-30T02:43:36.686Z,98743.71
2023-03-30T02:48:53.835Z,98737.88
2023-03-30T02:54:06.346Z,98720.64
2023-03-30T02:59:34.316Z,98713.17
2023-03-30T03:04:37.422Z,98701.72
2023-03-30T03:10:06.718Z,98694.60
2023-03-30T03:15:09.046Z,98695.65
2023-03-30T03:20:13.956Z,98694.63
2023-03-30T03:25:16.579Z,98691.34
2023-03-30T03:30:28.054Z,98683.96
2023-03-30T03:35:39.687Z,98684.81
2023-03-30T03:40:42.602Z,98683.85
2023-03-30T03:45:48.770Z,98677.42
2023-03-30T03:50:56.158Z,98674.55
2023-03-30T03:55:58.532Z,98673.34
2023-03-30T04:06:19.748Z,98666.45
2023-03-30T04:11:22.316Z,98656.46
2023-03-30T04:16:29.799Z,98653.73
2023-03-30T04:21:50.260Z,98640.60
2023-03-30T04:27:17.126Z,98631.90
2023-03-30T04:32:47.233Z,98627.02
2023-03-30T04:38:02.275Z,98626.06
2023-03-30T04:43:07.299Z,98626.16
2023-03-30T04:48:23.833Z,98615.80
2023-03-30T04:53:44.386Z,98613.14
2023-03-30T04:59:06.345Z,98605.24
2023-03-30T05:04:27.123Z,98609.77
2023-03-30T05:09:49.151Z,98608.88
2023-03-30T05:14:57.024Z,98605.10
2023-03-30T05:20:12.376Z,98600.14
2023-03-30T05:25:32.770Z,98597.25
2023-03-30T05:30:41.120Z,98596.30
2023-03-30T05:36:21.634Z,98586.05
2023-03-30T05:41:41.093Z,98568.14
2023-03-30T05:46:54.143Z,98552.00
2023-03-30T05:52:08.699Z,98546.02
2023-03-30T05:57:36.632Z,98526.91
2023-03-30T06:03:14.434Z,98518.45
2023-03-30T06:08:17.044Z,98525.19
2023-03-30T06:13:19.765Z,98539.10
2023-03-30T06:18:25.801Z,98539.76
2023-03-30T06:23:33.851Z,98540.80
2023-03-30T06:28:38.222Z,98544.10
2023-03-30T06:33:41.961Z,98537.83
2023-03-30T06:38:45.346Z,98528.02
2023-03-30T06:43:50.791Z,98527.98
2023-03-30T06:48:55.103Z,98537.73
2023-03-30T06:54:20.240Z,98537.06
2023-03-30T06:59:28.303Z,98531.88
2023-03-30T07:05:10.479Z,98513.21
2023-03-30T07:10:23.132Z,98511.26
2023-03-30T07:15:25.493Z,98510.33
2023-03-30T07:20:27.877Z,98517.73
2023-03-30T07:25:51.786Z,98507.20
2023-03-30T07:31:08.172Z,98501.08
2023-03-30T07:36:11.081Z,98499.88
2023-03-30T07:41:16.279Z,98495.75
2023-03-30T07:46:18.800Z,98497.79
2023-03-30T07:51:22.763Z,98499.94
2023-03-30T07:56:33.465Z,98498.89
2023-03-30T08:01:36.249Z,98499.47
2023-03-30T08:06:52.830Z,98487.30
2023-03-30T08:11:54.692Z,98476.39
2023-03-30T08:16:57.156Z,98480.21
2023-03-30T08:22:01.786Z,98478.45
2023-03-30T08:27:04.281Z,98477.48
2023-03-30T08:32:07.023Z,98464.50
2023-03-30T08:37:08.766Z,98456.52
2023-03-30T08:42:33.985Z,98449.19
2023-03-30T08:47:41.790Z,98451.45
2023-03-30T08:52:44.292Z,98445.73
2023-03-30T08:58:01.618Z,98452.11
2023-03-30T09:03:16.219Z,98439.16
2023-03-30T09:08:22.818Z,98433.81
2023-03-30T09:13:29.136Z,98440.41
2023-03-30T09:18:39.716Z,98415.49
2023-03-30T09:23:41.841Z,98410.06
2023-03-30T09:28:54.963Z,98393.66
2023-03-30T09:34:03.139Z,98368.74
2023-03-30T09:39:10.812Z,98358.58
2023-03-30T09:44:19.574Z,98363.83
2023-03-30T09:49:21.337Z,98369.94
2023-03-30T09:54:24.018Z,98375.02
2023-03-30T09:59:38.960Z,98362.85
2023-03-30T10:04:53.162Z,98353.06
2023-03-30T10:09:57.889Z,98349.11
2023-03-30T10:15:02.627Z,98350.10
2023-03-30T10:20:24.697Z,98343.95
2023-03-30T10:25:29.682Z,98334.60
2023-03-30T10:30:33.416Z,98323.52
2023-03-30T10:35:38.220Z,98309.16
2023-03-30T10:40:43.008Z,98305.70
2023-03-30T10:45:52.113Z,98296.59
2023-03-30T10:51:06.283Z,98271.46
2023-03-30T10:56:20.527Z,98262.11
2023-03-30T11:01:38.275Z,98265.06
2023-03-30T11:06:43.049Z,98253.05
2023-03-30T11:11:51.738Z,98253.67
2023-03-30T11:17:01.745Z,98256.56
2023-03-30T11:22:16.792Z,98256.05
2023-03-30T11:27:31.959Z,98248.77
2023-03-30T11:33:06.791Z,98236.01
2023-03-30T11:38:18.441Z,98232.02
2023-03-30T11:43:22.734Z,98231.75
2023-03-30T11:48:42.848Z,98225.73
2023-03-30T11:54:06.308Z,98215.76
2023-03-30T11:59:17.769Z,98208.21
2023-03-30T12:04:31.256Z,98204.89
2023-03-30T12:09:49.722Z,98207.61
2023-03-30T12:15:01.239Z,98204.97
2023-03-30T12:20:06.996Z,98201.38
2023-03-30T12:25:23.677Z,98199.36
2023-03-30T12:30:41.631Z,98204.29
2023-03-30T12:35:49.740Z,98202.94
2023-03-30T12:41:02.023Z,98205.55
2023-03-30T12:46:14.079Z,98198.95
2023-03-30T12:51:37.118Z,98198.63
2023-03-30T12:57:03.794Z,98205.36
2023-03-30T13:02:17.811Z,98207.09
2023-03-30T13:07:28.762Z,98212.92
2023-03-30T13:12:41.657Z,98224.61
2023-03-30T13:18:01.793Z,98224.31
2023-03-30T13:23:09.695Z,98227.98
2023-03-30T13:28:30.342Z,98237.83
2023-03-30T13:33:39.315Z,98240.52
2023-03-30T13:39:08.613Z,98247.34
2023-03-30T13:44:18.110Z,98247.32
2023-03-30T13:49:56.790Z,98245.19
2023-03-30T13:54:59.346Z,98249.04
2023-03-30T14:00:28.455Z,98245.94
2023-03-30T14:05:33.253Z,98241.53
2023-03-30T14:10:35.242Z,98239.17
2023-03-30T14:15:38.803Z,98239.82
2023-03-30T14:20:48.338Z,98244.34
2023-03-30T14:25:54.827Z,98234.35
2023-03-30T14:30:59.356Z,98232.77
2023-03-30T14:36:02.427Z,98224.08
2023-03-30T14:41:22.873Z,98214.65
2023-03-30T14:46:31.852Z,98212.60
2023-03-30T14:51:48.016Z,98204.16
2023-03-30T14:57:09.024Z,98194.38
2023-03-30T15:02:33.274Z,98190.77
2023-03-30T15:07:36.664Z,98187.88
2023-03-30T15:12:46.361Z,98186.16
2023-03-30T15:17:50.507Z,98182.08
2023-03-30T15:22:53.171Z,98179.70
2023-03-30T15:28:08.715Z,98177.48
2023-03-30T15:33:20.389Z,98171.13
2023-03-30T15:38:31.683Z,98163.24
2023-03-30T15:43:36.825Z,98159.27
2023-03-30T15:48:45.661Z,98156.86
2023-03-30T15:53:54.446Z,98151.03
2023-03-30T15:58:58.292Z,98143.98
2023-03-30T16:04:01.785Z,98143.08
2023-03-30T16:09:03.750Z,98134.29
2023-03-30T16:14:07.547Z,98128.24
2023-03-30T16:19:13.424Z,98116.73
2023-03-30T16:24:15.543Z,98109.15
2023-03-30T16:29:23.691Z,98093.89
2023-03-30T16:34:25.966Z,98084.29
2023-03-30T16:39:29.591Z,98075.02
2023-03-30T16:44:31.499Z,98075.52
2023-03-30T16:49:33.457Z,98058.52
2023-03-30T16:54:35.314Z,98058.19
2023-03-30T16:59:37.028Z,98063.98
2023-03-30T17:04:38.835Z,98049.93
2023-03-30T17:09:40.582Z,98045.48
2023-03-30T17:14:43.085Z,98059.88
2023-03-30T17:19:44.886Z,98070.67
2023-03-30T17:24:46.599Z,98063.82
2023-03-30T17:29:48.339Z,98080.96
2023-03-30T17:34:50.389Z,98089.70
2023-03-30T17:39:52.282Z,98099.46
2023-03-30T17:44:54.245Z,98104.94
2023-03-30T17:49:57.509Z,98108.53
2023-03-30T17:54:59.313Z,98107.18
2023-03-30T18:00:03.777Z,98122.79
2023-03-30T18:05:06.560Z,98130.84
2023-03-30T18:10:17.473Z,98138.20
2023-03-30T18:15:22.752Z,98143.52
2023-03-30T18:20:32.881Z,98135.29
2023-03-30T18:25:34.591Z,98133.58
2023-03-30T18:30:40.520Z,98131.52
2023-03-30T18:35:44.314Z,98125.88
2023-03-30T18:40:49.479Z,98113.72
2023-03-30T18:45:51.544Z,98104.13
2023-03-30T18:50:55.352Z,98103.27
2023-03-30T18:56:00.884Z,98092.66
2023-03-30T19:01:03.009Z,98095.02
2023-03-30T19:06:05.449Z,98104.43
2023-03-30T19:11:07.686Z,98098.25
2023-03-30T19:16:10.326Z,98099.42
2023-03-30T19:21:15.755Z,98102.83
2023-03-30T19:26:17.453Z,98095.42
2023-03-30T19:31:19.329Z,98090.30
2023-03-30T19:36:23.306Z,98083.09
2023-03-30T19:41:26.894Z,98072.62
2023-03-30T19:46:28.648Z,98072.95
2023-03-30T19:51:30.818Z,98075.17
2023-03-30T19:56:32.583Z,98072.95
2023-03-30T20:01:34.299Z,98058.55
2023-03-30T20:06:36.006Z,98052.03
2023-03-30T20:11:37.775Z,98049.79
2023-03-30T20:16:39.594Z,98047.55
2023-03-30T20:21:41.661Z,98039.84
2023-03-30T20:26:43.416Z,98047.00
2023-03-30T20:31:46.311Z,98040.13
2023-03-30T20:36:49.938Z,98039.94
2023-03-30T20:41:54.140Z,98029.48
2023-03-30T20:47:08.635Z,98025.90
2023-03-30T20:52:11.806Z,98024.02
2023-03-30T20:57:14.116Z,98028.48
2023-03-30T21:02:16.910Z,98031.73
2023-03-30T21:07:18.839Z,98020.73
2023-03-30T21:12:21.275Z,98014.73
2023-03-30T21:17:24.803Z,98018.34
2023-03-30T21:22:27.992Z,98022.79
2023-03-30T21:27:29.731Z,98015.29
2023-03-30T21:32:31.741Z,98017.18
2023-03-30T21:37:33.767Z,98007.79
2023-03-30T21:42:36.859Z,98009.87
2023-03-30T21:47:40.851Z,98011.75
2023-03-30T21:52:46.177Z,98015.38
2023-03-30T21:57:47.935Z,98024.81
2023-03-30T22:02:49.873Z,98050.36
2023-03-30T22:07:51.750Z,98066.98
2023-03-30T22:12:53.455Z,98070.93
2023-03-30T22:17:55.211Z,98061.14
2023-03-30T22:22:57.977Z,98052.56
2023-03-30T22:28:01.271Z,98042.08
2023-03-30T22:33:03.098Z,98037.60
2023-03-30T22:38:06.450Z,98030.71
2023-03-30T22:43:09.781Z,98024.22
2023-03-30T22:48:11.610Z,98028.49
2023-03-30T22:53:13.342Z,98028.83
2023-03-30T22:58:15.897Z,98026.60
2023-03-30T23:03:18.276Z,98028.31
2023-03-30T23:08:21.535Z,98017.52
2023-03-30T23:13:28.977Z,98020.95
2023-03-30T23:18:30.776Z,98027.48
2023-03-30T23:23:33.713Z,98027.14
2023-03-30T23:28:37.268Z,98026.64
2023-03-30T23:33:42.555Z,98032.79
2023-03-30T23:38:45.432Z,98033.63
2023-03-30T23:43:48.520Z,98027.58
2023-03-30T23:48:57.520Z,98027.16
2023-03-30T23:54:06.158Z,98033.39
2023-03-30T23:59:09.822Z,98036.36
